sensor_id;sensor_type;location;lat;lon;timestamp;P1;durP1;ratioP1;P2;durP2;ratioP2
57327;SDS011;43162;51.040;18.244;2022-12-18T00:01:36;24.40;;;11.10;;
57327;SDS011;43162;51.040;18.244;2022-12-18T00:04:03;34.20;;;11.60;;
57327;SDS011;43162;51.040;18.244;2022-12-18T00:06:30;26.20;;;11.40;;
57327;SDS011;43162;51.040;18.244;2022-12-18T00:09:00;18.40;;;7.40;;
57327;SDS011;43162;51.040;18.244;2022-12-18T00:11:28;37.30;;;16.30;;
57327;SDS011;43162;51.040;18.244;2022-12-18T00:13:59;26.30;;;10.90;;
57327;SDS011;43162;51.040;18.244;2022-12-18T00:16:25;27.30;;;8.80;;
57327;SDS011;43162;51.040;18.244;2022-12-18T00:18:53;21.80;;;10.50;;
57327;SDS011;43162;51.040;18.244;2022-12-18T00:21:20;34.20;;;12.20;;
57327;SDS011;43162;51.040;18.244;2022-12-18T00:23:46;28.40;;;12.40;;
57327;SDS011;43162;51.040;18.244;2022-12-18T00:26:14;16.10;;;6.80;;
57327;SDS011;43162;51.040;18.244;2022-12-18T00:28:41;24.70;;;11.40;;
57327;SDS011;43162;51.040;18.244;2022-12-18T00:31:09;32.60;;;11.50;;
57327;SDS011;43162;51.040;18.244;2022-12-18T00:33:37;16.80;;;10.10;;
57327;SDS011;43162;51.040;18.244;2022-12-18T00:36:04;35.20;;;13.80;;
57327;SDS011;43162;51.040;18.244;2022-12-18T00:38:31;36.40;;;11.30;;
57327;SDS011;43162;51.040;18.244;2022-12-18T00:40:57;22.40;;;11.70;;
57327;SDS011;43162;51.040;18.244;2022-12-18T00:43:25;38.60;;;12.10;;
57327;SDS011;43162;51.040;18.244;2022-12-18T00:45:55;40.60;;;13.30;;
57327;SDS011;43162;51.040;18.244;2022-12-18T00:48:21;25.00;;;11.90;;
57327;SDS011;43162;51.040;18.244;2022-12-18T00:50:47;30.30;;;10.40;;
57327;SDS011;43162;51.040;18.244;2022-12-18T00:53:13;18.80;;;9.70;;
57327;SDS011;43162;51.040;18.244;2022-12-18T00:55:41;26.50;;;10.60;;
57327;SDS011;43162;51.040;18.244;2022-12-18T00:58:08;37.90;;;14.90;;
57327;SDS011;43162;51.040;18.244;2022-12-18T01:00:34;20.10;;;10.00;;
57327;SDS011;43162;51.040;18.244;2022-12-18T01:02:59;35.90;;;14.70;;
57327;SDS011;43162;51.040;18.244;2022-12-18T01:05:25;15.70;;;6.80;;
57327;SDS011;43162;51.040;18.244;2022-12-18T01:07:51;39.70;;;14.80;;
57327;SDS011;43162;51.040;18.244;2022-12-18T01:10:17;21.70;;;7.40;;
57327;SDS011;43162;51.040;18.244;2022-12-18T01:12:43;17.30;;;7.30;;
57327;SDS011;43162;51.040;18.244;2022-12-18T01:15:09;31.90;;;12.20;;
57327;SDS011;43162;51.040;18.244;2022-12-18T01:17:35;29.70;;;11.00;;
57327;SDS011;43162;51.040;18.244;2022-12-18T01:20:01;28.00;;;11.30;;
57327;SDS011;43162;51.040;18.244;2022-12-18T01:22:26;24.40;;;10.50;;
57327;SDS011;43162;51.040;18.244;2022-12-18T01:24:52;14.30;;;8.40;;
57327;SDS011;43162;51.040;18.244;2022-12-18T01:27:17;28.20;;;10.20;;
57327;SDS011;43162;51.040;18.244;2022-12-18T01:29:44;36.60;;;11.50;;
57327;SDS011;43162;51.040;18.244;2022-12-18T01:32:10;35.30;;;10.60;;
57327;SDS011;43162;51.040;18.244;2022-12-18T01:34:36;18.40;;;8.10;;
57327;SDS011;43162;51.040;18.244;2022-12-18T01:37:05;37.60;;;15.70;;
57327;SDS011;43162;51.040;18.244;2022-12-18T01:39:31;27.30;;;11.40;;
57327;SDS011;43162;51.040;18.244;2022-12-18T01:41:58;30.60;;;12.10;;
57327;SDS011;43162;51.040;18.244;2022-12-18T01:50:15;30.40;;;10.40;;
57327;SDS011;43162;51.040;18.244;2022-12-18T01:52:42;30.60;;;11.70;;
57327;SDS011;43162;51.040;18.244;2022-12-18T01:55:10;28.00;;;11.10;;
57327;SDS011;43162;51.040;18.244;2022-12-18T01:57:37;23.90;;;9.80;;
57327;SDS011;43162;51.040;18.244;2022-12-18T02:00:05;21.00;;;8.70;;
57327;SDS011;43162;51.040;18.244;2022-12-18T02:02:35;29.20;;;12.00;;
57327;SDS011;43162;51.040;18.244;2022-12-18T02:05:02;26.20;;;10.90;;
57327;SDS011;43162;51.040;18.244;2022-12-18T02:10:17;23.00;;;9.70;;
57327;SDS011;43162;51.040;18.244;2022-12-18T02:15:40;31.90;;;11.40;;
57327;SDS011;43162;51.040;18.244;2022-12-18T02:18:21;21.10;;;8.40;;
57327;SDS011;43162;51.040;18.244;2022-12-18T02:21:00;34.10;;;11.30;;
57327;SDS011;43162;51.040;18.244;2022-12-18T02:26:36;18.00;;;8.00;;
57327;SDS011;43162;51.040;18.244;2022-12-18T02:29:10;12.90;;;7.50;;
57327;SDS011;43162;51.040;18.244;2022-12-18T02:31:40;32.60;;;10.50;;
57327;SDS011;43162;51.040;18.244;2022-12-18T02:34:08;23.10;;;9.00;;
57327;SDS011;43162;51.040;18.244;2022-12-18T02:36:35;26.60;;;7.90;;
57327;SDS011;43162;51.040;18.244;2022-12-18T02:39:03;24.00;;;9.00;;
57327;SDS011;43162;51.040;18.244;2022-12-18T02:41:30;37.80;;;10.00;;
57327;SDS011;43162;51.040;18.244;2022-12-18T02:43:57;27.90;;;9.50;;
57327;SDS011;43162;51.040;18.244;2022-12-18T02:49:05;25.70;;;8.50;;
57327;SDS011;43162;51.040;18.244;2022-12-18T02:51:50;21.30;;;8.90;;
57327;SDS011;43162;51.040;18.244;2022-12-18T02:54:21;27.10;;;12.10;;
57327;SDS011;43162;51.040;18.244;2022-12-18T02:57:01;15.50;;;6.00;;
57327;SDS011;43162;51.040;18.244;2022-12-18T02:59:45;16.30;;;8.20;;
57327;SDS011;43162;51.040;18.244;2022-12-18T03:02:23;18.10;;;6.20;;
57327;SDS011;43162;51.040;18.244;2022-12-18T03:05:10;22.50;;;6.90;;
57327;SDS011;43162;51.040;18.244;2022-12-18T03:07:42;21.90;;;8.00;;
57327;SDS011;43162;51.040;18.244;2022-12-18T03:10:24;19.30;;;11.10;;
57327;SDS011;43162;51.040;18.244;2022-12-18T03:15:19;19.00;;;7.30;;
57327;SDS011;43162;51.040;18.244;2022-12-18T03:17:56;32.20;;;10.30;;
57327;SDS011;43162;51.040;18.244;2022-12-18T03:20:25;22.50;;;8.10;;
57327;SDS011;43162;51.040;18.244;2022-12-18T03:22:52;38.10;;;13.30;;
57327;SDS011;43162;51.040;18.244;2022-12-18T03:25:21;19.60;;;10.80;;
57327;SDS011;43162;51.040;18.244;2022-12-18T03:27:49;29.80;;;11.10;;
57327;SDS011;43162;51.040;18.244;2022-12-18T03:30:16;24.30;;;10.90;;
57327;SDS011;43162;51.040;18.244;2022-12-18T03:32:50;24.60;;;12.10;;
57327;SDS011;43162;51.040;18.244;2022-12-18T03:35:21;13.30;;;7.40;;
57327;SDS011;43162;51.040;18.244;2022-12-18T03:37:49;24.90;;;9.10;;
57327;SDS011;43162;51.040;18.244;2022-12-18T03:40:15;31.30;;;9.90;;
57327;SDS011;43162;51.040;18.244;2022-12-18T03:42:45;21.10;;;8.10;;
57327;SDS011;43162;51.040;18.244;2022-12-18T03:48:14;29.40;;;10.00;;
57327;SDS011;43162;51.040;18.244;2022-12-18T03:51:02;21.50;;;9.30;;
57327;SDS011;43162;51.040;18.244;2022-12-18T03:53:33;32.30;;;11.80;;
57327;SDS011;43162;51.040;18.244;2022-12-18T03:56:05;23.10;;;8.40;;
57327;SDS011;43162;51.040;18.244;2022-12-18T03:58:31;35.80;;;11.40;;
57327;SDS011;43162;51.040;18.244;2022-12-18T04:00:58;35.70;;;13.90;;
57327;SDS011;43162;51.040;18.244;2022-12-18T04:03:25;36.30;;;13.10;;
57327;SDS011;43162;51.040;18.244;2022-12-18T04:05:54;35.10;;;10.50;;
57327;SDS011;43162;51.040;18.244;2022-12-18T04:08:21;35.80;;;12.30;;
57327;SDS011;43162;51.040;18.244;2022-12-18T04:10:47;46.70;;;13.10;;
57327;SDS011;43162;51.040;18.244;2022-12-18T04:13:13;31.20;;;9.50;;
57327;SDS011;43162;51.040;18.244;2022-12-18T04:15:47;32.30;;;12.80;;
57327;SDS011;43162;51.040;18.244;2022-12-18T04:18:12;38.60;;;12.30;;
57327;SDS011;43162;51.040;18.244;2022-12-18T04:20:38;29.50;;;11.90;;
57327;SDS011;43162;51.040;18.244;2022-12-18T04:23:03;36.20;;;11.40;;
57327;SDS011;43162;51.040;18.244;2022-12-18T04:25:29;37.30;;;13.00;;
57327;SDS011;43162;51.040;18.244;2022-12-18T04:27:54;38.50;;;13.20;;
57327;SDS011;43162;51.040;18.244;2022-12-18T04:30:20;41.20;;;13.70;;
57327;SDS011;43162;51.040;18.244;2022-12-18T04:32:45;40.40;;;13.20;;
57327;SDS011;43162;51.040;18.244;2022-12-18T04:35:11;16.50;;;6.30;;
57327;SDS011;43162;51.040;18.244;2022-12-18T04:37:37;16.00;;;7.20;;
57327;SDS011;43162;51.040;18.244;2022-12-18T04:40:03;29.10;;;9.80;;
57327;SDS011;43162;51.040;18.244;2022-12-18T04:42:29;20.10;;;6.90;;
57327;SDS011;43162;51.040;18.244;2022-12-18T04:44:54;13.80;;;6.50;;
57327;SDS011;43162;51.040;18.244;2022-12-18T04:47:20;22.00;;;8.80;;
57327;SDS011;43162;51.040;18.244;2022-12-18T04:49:48;21.10;;;8.40;;
57327;SDS011;43162;51.040;18.244;2022-12-18T04:52:14;36.20;;;11.40;;
57327;SDS011;43162;51.040;18.244;2022-12-18T04:54:39;26.30;;;9.30;;
57327;SDS011;43162;51.040;18.244;2022-12-18T04:57:05;36.10;;;10.70;;
57327;SDS011;43162;51.040;18.244;2022-12-18T04:59:30;28.70;;;11.70;;
57327;SDS011;43162;51.040;18.244;2022-12-18T05:01:56;23.60;;;8.90;;
57327;SDS011;43162;51.040;18.244;2022-12-18T05:04:22;30.90;;;11.10;;
57327;SDS011;43162;51.040;18.244;2022-12-18T05:06:47;22.30;;;10.60;;
57327;SDS011;43162;51.040;18.244;2022-12-18T05:09:13;32.30;;;10.50;;
57327;SDS011;43162;51.040;18.244;2022-12-18T05:11:38;26.30;;;7.60;;
57327;SDS011;43162;51.040;18.244;2022-12-18T05:14:04;38.80;;;11.60;;
57327;SDS011;43162;51.040;18.244;2022-12-18T05:16:30;33.30;;;10.20;;
57327;SDS011;43162;51.040;18.244;2022-12-18T05:18:55;32.70;;;11.20;;
57327;SDS011;43162;51.040;18.244;2022-12-18T05:21:21;33.80;;;12.60;;
57327;SDS011;43162;51.040;18.244;2022-12-18T05:23:46;33.60;;;11.50;;
57327;SDS011;43162;51.040;18.244;2022-12-18T05:26:14;22.60;;;7.70;;
57327;SDS011;43162;51.040;18.244;2022-12-18T05:28:41;42.40;;;12.30;;
57327;SDS011;43162;51.040;18.244;2022-12-18T05:31:07;26.80;;;11.90;;
57327;SDS011;43162;51.040;18.244;2022-12-18T05:33:33;48.50;;;15.30;;
57327;SDS011;43162;51.040;18.244;2022-12-18T05:36:04;43.80;;;14.90;;
57327;SDS011;43162;51.040;18.244;2022-12-18T05:38:31;44.10;;;14.10;;
57327;SDS011;43162;51.040;18.244;2022-12-18T05:41:01;33.90;;;10.20;;
57327;SDS011;43162;51.040;18.244;2022-12-18T05:43:27;30.90;;;11.90;;
57327;SDS011;43162;51.040;18.244;2022-12-18T05:46:10;40.10;;;13.30;;
57327;SDS011;43162;51.040;18.244;2022-12-18T05:48:37;46.90;;;15.20;;
57327;SDS011;43162;51.040;18.244;2022-12-18T05:51:03;34.80;;;10.70;;
57327;SDS011;43162;51.040;18.244;2022-12-18T05:53:31;43.50;;;14.40;;
57327;SDS011;43162;51.040;18.244;2022-12-18T05:56:00;34.60;;;11.70;;
57327;SDS011;43162;51.040;18.244;2022-12-18T05:58:27;34.60;;;11.80;;
57327;SDS011;43162;51.040;18.244;2022-12-18T06:00:52;36.90;;;13.00;;
57327;SDS011;43162;51.040;18.244;2022-12-18T06:03:18;37.40;;;14.80;;
57327;SDS011;43162;51.040;18.244;2022-12-18T06:05:44;31.80;;;12.40;;
57327;SDS011;43162;51.040;18.244;2022-12-18T06:08:10;38.90;;;11.80;;
57327;SDS011;43162;51.040;18.244;2022-12-18T06:10:37;40.00;;;12.90;;
57327;SDS011;43162;51.040;18.244;2022-12-18T06:13:03;30.40;;;11.20;;
57327;SDS011;43162;51.040;18.244;2022-12-18T06:15:29;32.20;;;11.30;;
57327;SDS011;43162;51.040;18.244;2022-12-18T06:17:55;19.80;;;9.00;;
57327;SDS011;43162;51.040;18.244;2022-12-18T06:20:20;35.30;;;11.40;;
57327;SDS011;43162;51.040;18.244;2022-12-18T06:22:46;38.30;;;14.10;;
57327;SDS011;43162;51.040;18.244;2022-12-18T06:25:11;27.00;;;9.60;;
57327;SDS011;43162;51.040;18.244;2022-12-18T06:27:37;37.60;;;10.30;;
57327;SDS011;43162;51.040;18.244;2022-12-18T06:30:03;38.40;;;10.20;;
57327;SDS011;43162;51.040;18.244;2022-12-18T06:32:29;43.40;;;13.40;;
57327;SDS011;43162;51.040;18.244;2022-12-18T06:34:55;39.10;;;12.70;;
57327;SDS011;43162;51.040;18.244;2022-12-18T06:37:21;32.00;;;11.60;;
57327;SDS011;43162;51.040;18.244;2022-12-18T06:39:51;37.40;;;13.90;;
57327;SDS011;43162;51.040;18.244;2022-12-18T06:42:17;40.80;;;12.90;;
57327;SDS011;43162;51.040;18.244;2022-12-18T06:44:43;47.00;;;15.20;;
57327;SDS011;43162;51.040;18.244;2022-12-18T06:47:09;31.00;;;9.90;;
57327;SDS011;43162;51.040;18.244;2022-12-18T06:49:34;36.10;;;12.30;;
57327;SDS011;43162;51.040;18.244;2022-12-18T06:52:00;36.30;;;12.40;;
57327;SDS011;43162;51.040;18.244;2022-12-18T06:54:26;24.70;;;10.80;;
57327;SDS011;43162;51.040;18.244;2022-12-18T06:56:51;34.80;;;12.70;;
57327;SDS011;43162;51.040;18.244;2022-12-18T06:59:17;34.50;;;11.80;;
57327;SDS011;43162;51.040;18.244;2022-12-18T07:01:42;38.10;;;13.00;;
57327;SDS011;43162;51.040;18.244;2022-12-18T07:04:09;34.30;;;13.10;;
57327;SDS011;43162;51.040;18.244;2022-12-18T07:06:34;23.90;;;9.00;;
57327;SDS011;43162;51.040;18.244;2022-12-18T07:09:00;28.90;;;9.80;;
57327;SDS011;43162;51.040;18.244;2022-12-18T07:11:25;38.70;;;13.30;;
57327;SDS011;43162;51.040;18.244;2022-12-18T07:13:51;32.10;;;11.00;;
57327;SDS011;43162;51.040;18.244;2022-12-18T07:16:18;27.10;;;8.50;;
57327;SDS011;43162;51.040;18.244;2022-12-18T07:18:44;34.80;;;12.10;;
57327;SDS011;43162;51.040;18.244;2022-12-18T07:21:12;18.40;;;7.20;;
57327;SDS011;43162;51.040;18.244;2022-12-18T07:23:40;51.10;;;14.20;;
57327;SDS011;43162;51.040;18.244;2022-12-18T07:26:09;32.90;;;12.10;;
57327;SDS011;43162;51.040;18.244;2022-12-18T07:28:36;42.10;;;13.70;;
57327;SDS011;43162;51.040;18.244;2022-12-18T07:31:03;33.20;;;10.40;;
57327;SDS011;43162;51.040;18.244;2022-12-18T07:33:31;30.20;;;10.70;;
57327;SDS011;43162;51.040;18.244;2022-12-18T07:36:01;38.60;;;13.10;;
57327;SDS011;43162;51.040;18.244;2022-12-18T07:38:29;27.50;;;9.60;;
57327;SDS011;43162;51.040;18.244;2022-12-18T07:40:59;41.50;;;14.20;;
57327;SDS011;43162;51.040;18.244;2022-12-18T07:43:27;44.30;;;13.90;;
57327;SDS011;43162;51.040;18.244;2022-12-18T07:45:52;52.60;;;17.20;;
57327;SDS011;43162;51.040;18.244;2022-12-18T07:48:17;54.60;;;19.00;;
57327;SDS011;43162;51.040;18.244;2022-12-18T07:50:43;53.90;;;20.10;;
57327;SDS011;43162;51.040;18.244;2022-12-18T07:53:09;44.30;;;17.40;;
57327;SDS011;43162;51.040;18.244;2022-12-18T07:55:34;41.70;;;14.80;;
57327;SDS011;43162;51.040;18.244;2022-12-18T07:58:01;45.50;;;16.30;;
57327;SDS011;43162;51.040;18.244;2022-12-18T08:00:27;43.80;;;15.60;;
57327;SDS011;43162;51.040;18.244;2022-12-18T08:02:53;42.40;;;16.10;;
57327;SDS011;43162;51.040;18.244;2022-12-18T08:05:18;56.70;;;21.00;;
57327;SDS011;43162;51.040;18.244;2022-12-18T08:07:46;53.60;;;21.50;;
57327;SDS011;43162;51.040;18.244;2022-12-18T08:10:11;47.00;;;19.10;;
57327;SDS011;43162;51.040;18.244;2022-12-18T08:12:38;42.10;;;14.30;;
57327;SDS011;43162;51.040;18.244;2022-12-18T08:15:06;52.40;;;16.80;;
57327;SDS011;43162;51.040;18.244;2022-12-18T08:17:32;49.50;;;18.30;;
57327;SDS011;43162;51.040;18.244;2022-12-18T08:19:58;48.40;;;17.70;;
57327;SDS011;43162;51.040;18.244;2022-12-18T08:22:24;39.80;;;14.20;;
57327;SDS011;43162;51.040;18.244;2022-12-18T08:24:50;46.20;;;16.70;;
57327;SDS011;43162;51.040;18.244;2022-12-18T08:27:15;43.50;;;17.50;;
57327;SDS011;43162;51.040;18.244;2022-12-18T08:29:41;49.30;;;17.30;;
57327;SDS011;43162;51.040;18.244;2022-12-18T08:32:07;145.70;;;38.00;;
57327;SDS011;43162;51.040;18.244;2022-12-18T08:34:33;76.90;;;23.20;;
57327;SDS011;43162;51.040;18.244;2022-12-18T08:36:58;57.50;;;20.80;;
57327;SDS011;43162;51.040;18.244;2022-12-18T08:39:24;70.10;;;24.90;;
57327;SDS011;43162;51.040;18.244;2022-12-18T08:41:50;83.30;;;25.40;;
57327;SDS011;43162;51.040;18.244;2022-12-18T08:44:34;58.40;;;23.50;;
57327;SDS011;43162;51.040;18.244;2022-12-18T08:47:02;112.90;;;30.00;;
57327;SDS011;43162;51.040;18.244;2022-12-18T08:49:29;152.20;;;39.30;;
57327;SDS011;43162;51.040;18.244;2022-12-18T08:51:55;96.50;;;26.30;;
57327;SDS011;43162;51.040;18.244;2022-12-18T08:54:22;82.90;;;23.70;;
57327;SDS011;43162;51.040;18.244;2022-12-18T08:56:49;84.70;;;24.80;;
57327;SDS011;43162;51.040;18.244;2022-12-18T08:59:17;72.60;;;25.40;;
57327;SDS011;43162;51.040;18.244;2022-12-18T09:01:44;54.50;;;18.20;;
57327;SDS011;43162;51.040;18.244;2022-12-18T09:04:10;49.00;;;18.20;;
57327;SDS011;43162;51.040;18.244;2022-12-18T09:06:35;55.20;;;20.30;;
57327;SDS011;43162;51.040;18.244;2022-12-18T09:09:02;50.00;;;17.50;;
57327;SDS011;43162;51.040;18.244;2022-12-18T09:11:29;65.00;;;22.30;;
57327;SDS011;43162;51.040;18.244;2022-12-18T09:13:55;53.20;;;20.50;;
57327;SDS011;43162;51.040;18.244;2022-12-18T09:16:20;47.20;;;16.80;;
57327;SDS011;43162;51.040;18.244;2022-12-18T09:18:47;49.30;;;18.70;;
57327;SDS011;43162;51.040;18.244;2022-12-18T09:21:14;78.70;;;24.10;;
57327;SDS011;43162;51.040;18.244;2022-12-18T09:23:41;59.90;;;20.90;;
57327;SDS011;43162;51.040;18.244;2022-12-18T09:26:07;60.20;;;21.10;;
57327;SDS011;43162;51.040;18.244;2022-12-18T09:28:33;64.50;;;19.60;;
57327;SDS011;43162;51.040;18.244;2022-12-18T09:30:59;59.80;;;21.00;;
57327;SDS011;43162;51.040;18.244;2022-12-18T09:33:29;46.50;;;17.60;;
57327;SDS011;43162;51.040;18.244;2022-12-18T09:35:54;43.00;;;17.20;;
57327;SDS011;43162;51.040;18.244;2022-12-18T09:38:20;36.00;;;16.10;;
57327;SDS011;43162;51.040;18.244;2022-12-18T09:40:52;52.90;;;17.80;;
57327;SDS011;43162;51.040;18.244;2022-12-18T09:43:20;34.70;;;15.30;;
57327;SDS011;43162;51.040;18.244;2022-12-18T09:45:51;50.20;;;18.90;;
57327;SDS011;43162;51.040;18.244;2022-12-18T09:51:19;56.80;;;21.80;;
57327;SDS011;43162;51.040;18.244;2022-12-18T09:53:54;51.20;;;20.60;;
57327;SDS011;43162;51.040;18.244;2022-12-18T09:56:22;56.90;;;22.10;;
57327;SDS011;43162;51.040;18.244;2022-12-18T09:58:59;49.40;;;21.30;;
57327;SDS011;43162;51.040;18.244;2022-12-18T10:01:27;63.70;;;24.30;;
57327;SDS011;43162;51.040;18.244;2022-12-18T10:03:53;60.90;;;21.70;;
57327;SDS011;43162;51.040;18.244;2022-12-18T10:23:12;55.40;;;20.80;;
57327;SDS011;43162;51.040;18.244;2022-12-18T10:28:37;53.60;;;19.80;;
57327;SDS011;43162;51.040;18.244;2022-12-18T10:31:07;54.10;;;20.80;;
57327;SDS011;43162;51.040;18.244;2022-12-18T10:33:44;55.00;;;19.50;;
57327;SDS011;43162;51.040;18.244;2022-12-18T10:36:10;42.20;;;16.90;;
57327;SDS011;43162;51.040;18.244;2022-12-18T10:38:36;37.40;;;17.00;;
57327;SDS011;43162;51.040;18.244;2022-12-18T10:41:04;39.50;;;16.60;;
57327;SDS011;43162;51.040;18.244;2022-12-18T10:43:34;46.90;;;17.70;;
57327;SDS011;43162;51.040;18.244;2022-12-18T10:46:03;37.40;;;14.10;;
57327;SDS011;43162;51.040;18.244;2022-12-18T10:53:53;54.80;;;20.10;;
57327;SDS011;43162;51.040;18.244;2022-12-18T10:56:21;45.40;;;18.00;;
57327;SDS011;43162;51.040;18.244;2022-12-18T10:58:57;45.30;;;18.70;;
57327;SDS011;43162;51.040;18.244;2022-12-18T11:04:25;45.00;;;17.30;;
57327;SDS011;43162;51.040;18.244;2022-12-18T11:06:52;50.40;;;19.50;;
57327;SDS011;43162;51.040;18.244;2022-12-18T11:09:24;60.00;;;21.30;;
57327;SDS011;43162;51.040;18.244;2022-12-18T11:11:57;52.70;;;18.40;;
57327;SDS011;43162;51.040;18.244;2022-12-18T11:16:51;43.10;;;18.00;;
57327;SDS011;43162;51.040;18.244;2022-12-18T11:21:51;65.70;;;22.70;;
57327;SDS011;43162;51.040;18.244;2022-12-18T11:26:58;46.70;;;18.70;;
57327;SDS011;43162;51.040;18.244;2022-12-18T11:29:28;43.30;;;18.10;;
57327;SDS011;43162;51.040;18.244;2022-12-18T11:32:12;41.60;;;17.90;;
57327;SDS011;43162;51.040;18.244;2022-12-18T11:34:52;43.00;;;15.50;;
57327;SDS011;43162;51.040;18.244;2022-12-18T11:37:41;49.30;;;21.10;;
57327;SDS011;43162;51.040;18.244;2022-12-18T11:40:14;56.50;;;21.70;;
57327;SDS011;43162;51.040;18.244;2022-12-18T11:42:54;52.90;;;22.10;;
57327;SDS011;43162;51.040;18.244;2022-12-18T11:45:29;58.10;;;22.10;;
57327;SDS011;43162;51.040;18.244;2022-12-18T11:48:03;57.60;;;19.70;;
57327;SDS011;43162;51.040;18.244;2022-12-18T11:53:10;62.20;;;20.80;;
57327;SDS011;43162;51.040;18.244;2022-12-18T11:55:39;53.10;;;20.00;;
57327;SDS011;43162;51.040;18.244;2022-12-18T12:00:47;39.20;;;15.60;;
57327;SDS011;43162;51.040;18.244;2022-12-18T12:03:24;45.80;;;17.40;;
57327;SDS011;43162;51.040;18.244;2022-12-18T12:11:21;42.40;;;16.10;;
57327;SDS011;43162;51.040;18.244;2022-12-18T12:19:38;55.10;;;22.50;;
57327;SDS011;43162;51.040;18.244;2022-12-18T12:22:19;57.60;;;20.30;;
57327;SDS011;43162;51.040;18.244;2022-12-18T12:25:04;49.00;;;18.00;;
57327;SDS011;43162;51.040;18.244;2022-12-18T12:31:02;60.70;;;21.90;;
57327;SDS011;43162;51.040;18.244;2022-12-18T12:38:52;58.50;;;21.60;;
57327;SDS011;43162;51.040;18.244;2022-12-18T12:41:26;55.90;;;21.00;;
57327;SDS011;43162;51.040;18.244;2022-12-18T12:44:24;79.70;;;26.90;;
57327;SDS011;43162;51.040;18.244;2022-12-18T12:46:57;99.60;;;28.50;;
57327;SDS011;43162;51.040;18.244;2022-12-18T12:49:26;73.30;;;25.50;;
57327;SDS011;43162;51.040;18.244;2022-12-18T12:52:04;72.80;;;25.90;;
57327;SDS011;43162;51.040;18.244;2022-12-18T12:54:33;76.00;;;24.30;;
57327;SDS011;43162;51.040;18.244;2022-12-18T12:59:47;83.00;;;26.50;;
57327;SDS011;43162;51.040;18.244;2022-12-18T13:02:22;64.70;;;25.60;;
57327;SDS011;43162;51.040;18.244;2022-12-18T13:05:23;65.40;;;22.70;;
57327;SDS011;43162;51.040;18.244;2022-12-18T13:08:07;57.90;;;21.10;;
57327;SDS011;43162;51.040;18.244;2022-12-18T13:10:43;74.80;;;26.00;;
57327;SDS011;43162;51.040;18.244;2022-12-18T13:13:10;74.70;;;25.10;;
57327;SDS011;43162;51.040;18.244;2022-12-18T13:15:47;75.00;;;24.70;;
57327;SDS011;43162;51.040;18.244;2022-12-18T13:18:32;67.00;;;22.90;;
57327;SDS011;43162;51.040;18.244;2022-12-18T13:36:45;57.70;;;21.50;;
57327;SDS011;43162;51.040;18.244;2022-12-18T13:39:20;66.10;;;19.60;;
57327;SDS011;43162;51.040;18.244;2022-12-18T13:41:47;59.00;;;19.70;;
57327;SDS011;43162;51.040;18.244;2022-12-18T13:49:39;52.00;;;18.60;;
57327;SDS011;43162;51.040;18.244;2022-12-18T13:52:17;42.20;;;15.00;;
57327;SDS011;43162;51.040;18.244;2022-12-18T13:54:46;50.70;;;17.00;;
57327;SDS011;43162;51.040;18.244;2022-12-18T13:57:26;41.70;;;16.40;;
57327;SDS011;43162;51.040;18.244;2022-12-18T13:59:54;41.60;;;15.00;;
57327;SDS011;43162;51.040;18.244;2022-12-18T14:02:21;48.40;;;16.50;;
57327;SDS011;43162;51.040;18.244;2022-12-18T14:04:55;49.10;;;15.90;;
57327;SDS011;43162;51.040;18.244;2022-12-18T14:07:27;41.50;;;15.30;;
57327;SDS011;43162;51.040;18.244;2022-12-18T14:09:55;49.70;;;14.90;;
57327;SDS011;43162;51.040;18.244;2022-12-18T14:12:34;46.90;;;16.20;;
57327;SDS011;43162;51.040;18.244;2022-12-18T14:15:25;38.80;;;14.90;;
57327;SDS011;43162;51.040;18.244;2022-12-18T14:18:03;38.80;;;13.20;;
57327;SDS011;43162;51.040;18.244;2022-12-18T14:20:39;37.60;;;15.20;;
57327;SDS011;43162;51.040;18.244;2022-12-18T14:23:24;41.00;;;17.40;;
57327;SDS011;43162;51.040;18.244;2022-12-18T14:25:56;43.80;;;19.50;;
57327;SDS011;43162;51.040;18.244;2022-12-18T14:28:22;52.20;;;18.30;;
57327;SDS011;43162;51.040;18.244;2022-12-18T14:30:48;40.10;;;14.10;;
57327;SDS011;43162;51.040;18.244;2022-12-18T14:33:20;36.00;;;14.70;;
57327;SDS011;43162;51.040;18.244;2022-12-18T14:36:01;39.20;;;14.00;;
57327;SDS011;43162;51.040;18.244;2022-12-18T14:38:34;39.30;;;13.70;;
57327;SDS011;43162;51.040;18.244;2022-12-18T14:43:39;41.70;;;15.20;;
57327;SDS011;43162;51.040;18.244;2022-12-18T14:48:55;46.40;;;17.40;;
57327;SDS011;43162;51.040;18.244;2022-12-18T14:51:22;48.60;;;15.20;;
57327;SDS011;43162;51.040;18.244;2022-12-18T14:56:36;47.60;;;17.10;;
57327;SDS011;43162;51.040;18.244;2022-12-18T14:59:18;48.40;;;17.50;;
57327;SDS011;43162;51.040;18.244;2022-12-18T15:04:29;53.00;;;17.30;;
57327;SDS011;43162;51.040;18.244;2022-12-18T15:09:28;45.00;;;17.40;;
57327;SDS011;43162;51.040;18.244;2022-12-18T15:11:58;47.80;;;17.60;;
57327;SDS011;43162;51.040;18.244;2022-12-18T15:14:32;34.60;;;11.80;;
57327;SDS011;43162;51.040;18.244;2022-12-18T15:17:00;76.00;;;26.30;;
57327;SDS011;43162;51.040;18.244;2022-12-18T15:19:40;57.70;;;18.00;;
57327;SDS011;43162;51.040;18.244;2022-12-18T15:22:26;80.00;;;26.50;;
57327;SDS011;43162;51.040;18.244;2022-12-18T15:24:54;51.90;;;19.30;;
57327;SDS011;43162;51.040;18.244;2022-12-18T15:32:33;54.20;;;18.50;;
57327;SDS011;43162;51.040;18.244;2022-12-18T15:37:42;83.50;;;23.40;;
57327;SDS011;43162;51.040;18.244;2022-12-18T15:40:12;60.20;;;20.40;;
57327;SDS011;43162;51.040;18.244;2022-12-18T15:42:39;22.60;;;9.90;;
57327;SDS011;43162;51.040;18.244;2022-12-18T15:45:23;97.90;;;31.60;;
57327;SDS011;43162;51.040;18.244;2022-12-18T15:47:49;74.70;;;25.70;;
57327;SDS011;43162;51.040;18.244;2022-12-18T15:50:15;52.20;;;17.40;;
57327;SDS011;43162;51.040;18.244;2022-12-18T15:52:46;35.10;;;16.10;;
57327;SDS011;43162;51.040;18.244;2022-12-18T15:55:15;43.40;;;16.80;;
57327;SDS011;43162;51.040;18.244;2022-12-18T15:58:10;43.10;;;13.80;;
57327;SDS011;43162;51.040;18.244;2022-12-18T16:00:37;79.20;;;20.50;;
57327;SDS011;43162;51.040;18.244;2022-12-18T16:03:04;54.10;;;20.20;;
57327;SDS011;43162;51.040;18.244;2022-12-18T16:05:30;69.50;;;21.10;;
57327;SDS011;43162;51.040;18.244;2022-12-18T16:08:00;46.90;;;16.00;;
57327;SDS011;43162;51.040;18.244;2022-12-18T16:10:26;58.90;;;20.70;;
57327;SDS011;43162;51.040;18.244;2022-12-18T16:12:54;69.80;;;20.90;;
57327;SDS011;43162;51.040;18.244;2022-12-18T16:15:23;60.90;;;19.60;;
57327;SDS011;43162;51.040;18.244;2022-12-18T16:17:49;74.30;;;23.00;;
57327;SDS011;43162;51.040;18.244;2022-12-18T16:20:15;65.70;;;23.40;;
57327;SDS011;43162;51.040;18.244;2022-12-18T16:22:43;61.00;;;19.30;;
57327;SDS011;43162;51.040;18.244;2022-12-18T16:25:21;59.80;;;18.90;;
57327;SDS011;43162;51.040;18.244;2022-12-18T16:27:48;62.90;;;20.90;;
57327;SDS011;43162;51.040;18.244;2022-12-18T16:30:16;83.40;;;23.90;;
57327;SDS011;43162;51.040;18.244;2022-12-18T16:32:51;62.00;;;17.30;;
57327;SDS011;43162;51.040;18.244;2022-12-18T16:35:21;67.90;;;22.50;;